Epic Capri — 9HA2845 — position and weather

sailwx.info

Track history (hours):
 
Tides and Currents Weather Stations Pressure Air Temp Water Temp Dewpoint Dewpoint Depression Visibility Wind Speed Wind Dir Waves Ship Positions

Epic Capri

Last reported at 2015-Feb-01 05:28 UTC. Time now 2015-Feb-01 05:39 UTC.
Position N 37°57' W 008°53'.

Length 99 m; draft 4.9 m.

Type: Tanker. MMSI: 256325000.

Date/timePositionNaut miles runAvg speedWind from/ knotsBaromVisibWave heightAir tempDewpointWater temp
2015-Feb-01 05:28N 37°57' W 008°53'0 0.0
2015-Feb-01 04:28N 37°57' W 008°53'0 0.0
2015-Feb-01 03:31N 37°57' W 008°53'0 0.0
2015-Feb-01 02:31N 37°57' W 008°53'0 0.0
2015-Feb-01 01:31N 37°57' W 008°53'0 0.0
2015-Feb-01 00:25N 37°57' W 008°53'1 1.3
2015-Jan-31 23:33N 37°56' W 008°53'6 5.6
2015-Jan-31 22:33N 37°59' W 008°59'1010.1
2015-Jan-31 21:33N 38°03' W 009°10'10 9.8
2015-Jan-31 20:33N 38°06' W 009°22'9 9.3
2015-Jan-31 19:32N 38°08' W 009°34'13 9.3
2015-Jan-31 18:08N 38°15' W 009°49'  
2015-Jan-29 01:20N 38°46' W 009°57'7 8.4
2015-Jan-29 00:28N 38°39' W 009°56'8 8.3
2015-Jan-28 23:30N 38°31' W 009°54'27 6.9
2015-Jan-28 19:32N 38°12' W 009°29'8 7.7
2015-Jan-28 18:33N 38°08' W 009°21'7 7.2
2015-Jan-28 17:33N 38°05' W 009°13'7 7.2
2015-Jan-28 16:33N 38°02' W 009°04'8 8.0
2015-Jan-28 15:33N 37°57' W 008°56'3 2.6
2015-Jan-28 14:33N 37°57' W 008°53'0 0.0
2015-Jan-28 13:33N 37°57' W 008°53'0 0.0
2015-Jan-28 12:33N 37°57' W 008°53'0 0.0
2015-Jan-28 11:33N 37°57' W 008°53'0 0.0
2015-Jan-28 10:33N 37°57' W 008°53'0 0.0
2015-Jan-28 09:33N 37°57' W 008°53'0 0.0
2015-Jan-28 08:33N 37°57' W 008°53'0 0.0
2015-Jan-28 07:33N 37°57' W 008°53'0 0.0
2015-Jan-28 06:33N 37°57' W 008°53'0 0.0
2015-Jan-28 05:33N 37°57' W 008°53'0 0.0
2015-Jan-28 04:33N 37°57' W 008°53'0 0.0
2015-Jan-28 03:33N 37°57' W 008°53'0 0.0
2015-Jan-28 02:33N 37°57' W 008°53'0 0.0
2015-Jan-28 01:30N 37°57' W 008°53'0 0.0
2015-Jan-28 00:33N 37°57' W 008°53'0 0.0
2015-Jan-27 23:33N 37°57' W 008°53'0 0.0
2015-Jan-27 22:33N 37°57' W 008°53'0 0.0
2015-Jan-27 21:33N 37°57' W 008°53'0 0.0
2015-Jan-27 20:33N 37°57' W 008°53'1 1.3
2015-Jan-27 19:33N 37°56' W 008°53'1 1.4
2015-Jan-27 18:33N 37°54' W 008°53'0 0.0
2015-Jan-27 17:33N 37°54' W 008°53'0 0.0
2015-Jan-27 16:33N 37°54' W 008°53'0 0.0
2015-Jan-27 15:33N 37°54' W 008°53'0 0.0
2015-Jan-27 14:33N 37°54' W 008°53'0 0.0
2015-Jan-27 13:33N 37°54' W 008°53'0 0.0
2015-Jan-27 12:33N 37°54' W 008°53'0 0.0
2015-Jan-27 11:33N 37°54' W 008°53'0 0.0
2015-Jan-27 10:33N 37°54' W 008°53'0 0.0
2015-Jan-27 09:33N 37°54' W 008°53'0 0.0
2015-Jan-27 08:33N 37°54' W 008°53'0 0.0
2015-Jan-27 07:33N 37°54' W 008°53'0 0.0
2015-Jan-27 06:33N 37°54' W 008°53'0 0.0
2015-Jan-27 05:33N 37°54' W 008°53'2 2.3
2015-Jan-27 04:33N 37°54' W 008°56'10 9.5
2015-Jan-27 03:33N 37°53' W 009°08'1010.1
2015-Jan-27 02:33N 37°53' W 009°20'9 9.4
2015-Jan-27 01:32N 37°53' W 009°32'26 8.6
2015-Jan-26 22:31N 37°51' W 010°05'8 8.7
2015-Jan-26 21:33N 37°51' W 010°16'9 9.3
2015-Jan-26 20:33N 37°54' W 010°27'8 8.4
2015-Jan-26 19:32N 37°56' W 010°37'8 7.9
2015-Jan-26 18:33N 37°55' W 010°47'8 7.6
2015-Jan-26 17:33N 37°56' W 010°57'9 8.5
2015-Jan-26 16:33N 37°57' W 011°08'9 8.6
2015-Jan-26 15:32N 37°57' W 011°19'8 8.3
2015-Jan-26 14:32N 37°58' W 011°29'8 8.5
2015-Jan-26 13:33N 37°58' W 011°40'11 8.5
2015-Jan-26 12:16N 37°58' W 011°54'34 8.6
2015-Jan-26 08:16N 37°60' W 012°37'6 8.3
2015-Jan-26 07:31N 37°60' W 012°45'11 8.6
2015-Jan-26 06:14N 38°00' W 012°59'8 8.7
2015-Jan-26 05:21N 38°01' W 013°09'9 8.6
2015-Jan-26 04:19N 38°01' W 013°20'19 8.8
2015-Jan-26 02:08N 38°02' W 013°44'483 9.6
2015-Jan-23 23:33N 38°21' W 023°58'1010.0
2015-Jan-23 22:33N 38°22' W 024°11'1010.1
2015-Jan-23 21:33N 38°22' W 024°24'1010.1
2015-Jan-23 20:33N 38°22' W 024°37'1010.4
2015-Jan-23 19:33N 38°22' W 024°50'1110.7
2015-Jan-23 18:34N 38°23' W 025°04'1110.6
2015-Jan-23 17:33N 38°24' W 025°17'1110.5
2015-Jan-23 16:33N 38°24' W 025°31'1010.3
2015-Jan-23 15:34N 38°24' W 025°44'1110.7
2015-Jan-23 14:33N 38°25' W 025°57'1110.6
2015-Jan-23 13:33N 38°26' W 026°11'1110.6
2015-Jan-23 12:33N 38°26' W 026°24'1010.4
2015-Jan-23 11:33N 38°26' W 026°38'10 9.9
2015-Jan-23 10:34N 38°26' W 026°50'10 9.8
2015-Jan-23 09:33N 38°27' W 027°03'10 9.7
2015-Jan-23 08:33N 38°27' W 027°15'1010.1
2015-Jan-23 07:33N 38°28' W 027°28'10 9.9
2015-Jan-23 06:33N 38°28' W 027°41'1010.2
2015-Jan-23 05:33N 38°30' W 027°54'34 3.4
2015-Jan-22 19:29N 38°32' W 028°37'1 0.7
2015-Jan-22 18:33N 38°32' W 028°37'3 2.7
2015-Jan-22 17:33N 38°31' W 028°33'0 0.0
2015-Jan-22 16:33N 38°32' W 028°33'0 0.0
2015-Jan-22 15:33N 38°32' W 028°33'0 0.0
2015-Jan-22 14:33N 38°32' W 028°33'0 0.0
2015-Jan-22 13:33N 38°32' W 028°33'0 0.0
2015-Jan-22 12:33N 38°32' W 028°33'0 0.0
2015-Jan-22 11:27N 38°32' W 028°33'0 0.0
2015-Jan-22 10:33N 38°32' W 028°33'0 0.0
2015-Jan-22 09:33N 38°32' W 028°33'0 0.0
2015-Jan-22 08:33N 38°32' W 028°33'0 0.0
2015-Jan-22 07:33N 38°32' W 028°33'0 0.0
2015-Jan-22 06:33N 38°31' W 028°33'0 0.1
2015-Jan-22 05:33N 38°31' W 028°33'  
Track history (hours):
 
Tides and Currents Weather Stations Pressure Air Temp Water Temp Dewpoint Dewpoint Depression Visibility Wind Speed Wind Dir Waves Ship Positions

Epic Capri

Last reported at 2015-Feb-01 05:28 UTC. Time now 2015-Feb-01 05:39 UTC.
Position N 37°57' W 008°53'.

Length 99 m; draft 4.9 m.

Type: Tanker. MMSI: 256325000.

Date/timePositionNaut miles runAvg speedWind from/ knotsBaromVisibWave heightAir tempDewpointWater temp
2015-Feb-01 05:28N 37°57' W 008°53'0 0.0
2015-Feb-01 04:28N 37°57' W 008°53'0 0.0
2015-Feb-01 03:31N 37°57' W 008°53'0 0.0
2015-Feb-01 02:31N 37°57' W 008°53'0 0.0
2015-Feb-01 01:31N 37°57' W 008°53'0 0.0
2015-Feb-01 00:25N 37°57' W 008°53'1 1.3
2015-Jan-31 23:33N 37°56' W 008°53'6 5.6
2015-Jan-31 22:33N 37°59' W 008°59'1010.1
2015-Jan-31 21:33N 38°03' W 009°10'10 9.8
2015-Jan-31 20:33N 38°06' W 009°22'9 9.3
2015-Jan-31 19:32N 38°08' W 009°34'13 9.3
2015-Jan-31 18:08N 38°15' W 009°49'  
2015-Jan-29 01:20N 38°46' W 009°57'7 8.4
2015-Jan-29 00:28N 38°39' W 009°56'8 8.3
2015-Jan-28 23:30N 38°31' W 009°54'27 6.9
2015-Jan-28 19:32N 38°12' W 009°29'8 7.7
2015-Jan-28 18:33N 38°08' W 009°21'7 7.2
2015-Jan-28 17:33N 38°05' W 009°13'7 7.2
2015-Jan-28 16:33N 38°02' W 009°04'8 8.0
2015-Jan-28 15:33N 37°57' W 008°56'3 2.6
2015-Jan-28 14:33N 37°57' W 008°53'0 0.0
2015-Jan-28 13:33N 37°57' W 008°53'0 0.0
2015-Jan-28 12:33N 37°57' W 008°53'0 0.0
2015-Jan-28 11:33N 37°57' W 008°53'0 0.0
2015-Jan-28 10:33N 37°57' W 008°53'0 0.0
2015-Jan-28 09:33N 37°57' W 008°53'0 0.0
2015-Jan-28 08:33N 37°57' W 008°53'0 0.0
2015-Jan-28 07:33N 37°57' W 008°53'0 0.0
2015-Jan-28 06:33N 37°57' W 008°53'0 0.0
2015-Jan-28 05:33N 37°57' W 008°53'0 0.0
2015-Jan-28 04:33N 37°57' W 008°53'0 0.0
2015-Jan-28 03:33N 37°57' W 008°53'0 0.0
2015-Jan-28 02:33N 37°57' W 008°53'0 0.0
2015-Jan-28 01:30N 37°57' W 008°53'0 0.0
2015-Jan-28 00:33N 37°57' W 008°53'0 0.0
2015-Jan-27 23:33N 37°57' W 008°53'0 0.0
2015-Jan-27 22:33N 37°57' W 008°53'0 0.0
2015-Jan-27 21:33N 37°57' W 008°53'0 0.0
2015-Jan-27 20:33N 37°57' W 008°53'1 1.3
2015-Jan-27 19:33N 37°56' W 008°53'1 1.4
2015-Jan-27 18:33N 37°54' W 008°53'0 0.0
2015-Jan-27 17:33N 37°54' W 008°53'0 0.0
2015-Jan-27 16:33N 37°54' W 008°53'0 0.0
2015-Jan-27 15:33N 37°54' W 008°53'0 0.0
2015-Jan-27 14:33N 37°54' W 008°53'0 0.0
2015-Jan-27 13:33N 37°54' W 008°53'0 0.0
2015-Jan-27 12:33N 37°54' W 008°53'0 0.0
2015-Jan-27 11:33N 37°54' W 008°53'0 0.0
2015-Jan-27 10:33N 37°54' W 008°53'0 0.0
2015-Jan-27 09:33N 37°54' W 008°53'0 0.0
2015-Jan-27 08:33N 37°54' W 008°53'0 0.0
2015-Jan-27 07:33N 37°54' W 008°53'0 0.0
2015-Jan-27 06:33N 37°54' W 008°53'0 0.0
2015-Jan-27 05:33N 37°54' W 008°53'2 2.3
2015-Jan-27 04:33N 37°54' W 008°56'10 9.5
2015-Jan-27 03:33N 37°53' W 009°08'1010.1
2015-Jan-27 02:33N 37°53' W 009°20'9 9.4
2015-Jan-27 01:32N 37°53' W 009°32'26 8.6
2015-Jan-26 22:31N 37°51' W 010°05'8 8.7
2015-Jan-26 21:33N 37°51' W 010°16'9 9.3
2015-Jan-26 20:33N 37°54' W 010°27'8 8.4
2015-Jan-26 19:32N 37°56' W 010°37'8 7.9
2015-Jan-26 18:33N 37°55' W 010°47'8 7.6
2015-Jan-26 17:33N 37°56' W 010°57'9 8.5
2015-Jan-26 16:33N 37°57' W 011°08'9 8.6
2015-Jan-26 15:32N 37°57' W 011°19'8 8.3
2015-Jan-26 14:32N 37°58' W 011°29'8 8.5
2015-Jan-26 13:33N 37°58' W 011°40'11 8.5
2015-Jan-26 12:16N 37°58' W 011°54'34 8.6
2015-Jan-26 08:16N 37°60' W 012°37'6 8.3
2015-Jan-26 07:31N 37°60' W 012°45'11 8.6
2015-Jan-26 06:14N 38°00' W 012°59'8 8.7
2015-Jan-26 05:21N 38°01' W 013°09'9 8.6
2015-Jan-26 04:19N 38°01' W 013°20'19 8.8
2015-Jan-26 02:08N 38°02' W 013°44'483 9.6
2015-Jan-23 23:33N 38°21' W 023°58'1010.0
2015-Jan-23 22:33N 38°22' W 024°11'1010.1
2015-Jan-23 21:33N 38°22' W 024°24'1010.1
2015-Jan-23 20:33N 38°22' W 024°37'1010.4
2015-Jan-23 19:33N 38°22' W 024°50'1110.7
2015-Jan-23 18:34N 38°23' W 025°04'1110.6
2015-Jan-23 17:33N 38°24' W 025°17'1110.5
2015-Jan-23 16:33N 38°24' W 025°31'1010.3
2015-Jan-23 15:34N 38°24' W 025°44'1110.7
2015-Jan-23 14:33N 38°25' W 025°57'1110.6
2015-Jan-23 13:33N 38°26' W 026°11'1110.6
2015-Jan-23 12:33N 38°26' W 026°24'1010.4
2015-Jan-23 11:33N 38°26' W 026°38'10 9.9
2015-Jan-23 10:34N 38°26' W 026°50'10 9.8
2015-Jan-23 09:33N 38°27' W 027°03'10 9.7
2015-Jan-23 08:33N 38°27' W 027°15'1010.1
2015-Jan-23 07:33N 38°28' W 027°28'10 9.9
2015-Jan-23 06:33N 38°28' W 027°41'1010.2
2015-Jan-23 05:33N 38°30' W 027°54'34 3.4
2015-Jan-22 19:29N 38°32' W 028°37'1 0.7
2015-Jan-22 18:33N 38°32' W 028°37'3 2.7
2015-Jan-22 17:33N 38°31' W 028°33'0 0.0
2015-Jan-22 16:33N 38°32' W 028°33'0 0.0
2015-Jan-22 15:33N 38°32' W 028°33'0 0.0
2015-Jan-22 14:33N 38°32' W 028°33'0 0.0
2015-Jan-22 13:33N 38°32' W 028°33'0 0.0
2015-Jan-22 12:33N 38°32' W 028°33'0 0.0
2015-Jan-22 11:27N 38°32' W 028°33'0 0.0
2015-Jan-22 10:33N 38°32' W 028°33'0 0.0
2015-Jan-22 09:33N 38°32' W 028°33'0 0.0
2015-Jan-22 08:33N 38°32' W 028°33'0 0.0
2015-Jan-22 07:33N 38°32' W 028°33'0 0.0
2015-Jan-22 06:33N 38°31' W 028°33'0 0.1
2015-Jan-22 05:33N 38°31' W 028°33'  

Dump ship's entire track history